Time;durP1;ratioP1;P1;durP2;ratioP2;P2;SDS_P1;SDS_P2;PMS_P1;PMS_P2;Temp;Humidity;BMP_temperature;BMP_pressure;BME280_temperature;BME280_humidity;BME280_pressure;Samples;Min_cycle;Max_cycle;Signal;HPM_P1;HPM_P2
2022/09/20 00:01:24;;;;;;;6.57;2.58;;;;;;;10.34;82.60;99124.22;5114137;27;20019;-75
2022/09/20 00:03:55;;;;;;;6.95;3.20;;;;;;;10.41;81.64;99124.91;5115751;27;20035;-75
2022/09/20 00:06:24;;;;;;;3.67;2.60;;;;;;;10.52;81.83;99121.34;5113679;27;20038;-75
2022/09/20 00:08:49;;;;;;;6.55;2.67;;;;;;;10.47;81.87;99112.44;5115171;27;20820;-76
2022/09/20 00:11:21;;;;;;;5.47;2.20;;;;;;;10.52;81.67;99112.53;5106677;27;20035;-75
2022/09/20 00:13:48;;;;;;;11.00;3.75;;;;;;;10.43;81.56;99124.66;5110455;27;20437;-75
2022/09/20 00:16:23;;;;;;;5.75;2.53;;;;;;;10.28;82.57;99122.53;5119125;27;20023;-76
2022/09/20 00:18:50;;;;;;;8.05;3.10;;;;;;;10.43;81.38;99116.63;5111282;27;20069;-75
2022/09/20 00:21:18;;;;;;;4.63;2.20;;;;;;;10.37;81.79;99122.94;5116487;27;20039;-77
2022/09/20 00:23:44;;;;;;;6.13;2.88;;;;;;;10.32;83.13;99121.00;5114820;27;20030;-75
2022/09/20 00:26:09;;;;;;;4.45;2.88;;;;;;;10.39;81.89;99119.00;5120495;27;20031;-75
2022/09/20 00:28:35;;;;;;;8.48;3.33;;;;;;;10.43;82.46;99108.63;5122302;27;20540;-75
2022/09/20 00:31:00;;;;;;;9.38;3.50;;;;;;;10.41;82.01;99124.06;5119744;27;20033;-76
2022/09/20 00:35:06;;;;;;;8.77;3.53;;;;;;;10.14;83.11;99107.84;5118576;27;20036;-75
2022/09/20 00:36:14;;;;;;;9.40;3.63;;;;;;;10.40;82.43;99123.25;5114901;27;20047;-76
2022/09/20 00:38:39;;;;;;;10.68;3.65;;;;;;;10.09;83.53;99129.06;5120387;27;20027;-76
2022/09/20 00:41:05;;;;;;;8.82;3.08;;;;;;;10.34;81.74;99123.41;5109532;27;20042;-76
2022/09/20 00:43:42;;;;;;;9.95;3.30;;;;;;;10.22;82.50;99130.69;5092874;27;20039;-75
2022/09/20 00:46:20;;;;;;;8.68;3.13;;;;;;;10.11;83.56;99129.66;5116700;27;20038;-75
2022/09/20 00:48:47;;;;;;;6.85;3.08;;;;;;;9.98;83.45;99126.44;5100885;27;20102;-75
2022/09/20 00:51:16;;;;;;;9.43;3.60;;;;;;;10.29;82.78;99128.66;5121507;27;20117;-76
2022/09/20 00:53:47;;;;;;;10.48;3.63;;;;;;;10.04;83.42;99123.66;5116490;27;20909;-76
2022/09/20 00:56:27;;;;;;;8.60;3.33;;;;;;;9.79;84.57;99131.94;5121559;27;20027;-75
2022/09/20 00:59:13;;;;;;;7.45;3.53;;;;;;;10.09;82.95;99126.38;5089180;27;20118;-75
2022/09/20 01:01:38;;;;;;;5.88;3.10;;;;;;;9.87;84.55;99135.28;5114633;27;20051;-76
2022/09/20 01:04:04;;;;;;;8.52;4.07;;;;;;;9.85;84.62;99124.06;5112901;27;20073;-74
2022/09/20 01:06:32;;;;;;;10.38;2.78;;;;;;;10.29;82.30;99124.13;5100852;28;20034;-75
2022/09/20 01:09:01;;;;;;;10.23;4.10;;;;;;;10.31;82.05;99130.03;5116321;27;20780;-74
2022/09/20 01:11:29;;;;;;;7.75;3.45;;;;;;;10.32;81.98;99120.19;5114652;27;20039;-74
2022/09/20 01:13:54;;;;;;;8.80;4.28;;;;;;;9.89;83.08;99118.03;5112670;27;20031;-75
2022/09/20 01:16:21;;;;;;;8.73;2.90;;;;;;;10.05;82.37;99116.44;5125150;28;20518;-74
2022/09/20 01:18:48;;;;;;;5.22;2.95;;;;;;;10.27;81.54;99120.06;5123945;28;20551;-75
2022/09/20 01:21:14;;;;;;;7.25;3.03;;;;;;;10.14;82.25;99115.84;5123638;27;20593;-75
2022/09/20 01:23:40;;;;;;;10.50;3.15;;;;;;;10.09;82.57;99117.59;5105579;27;20506;-76
2022/09/20 01:26:32;;;;;;;7.22;3.20;;;;;;;10.14;82.32;99121.19;5113286;27;20027;-75
2022/09/20 01:29:22;;;;;;;10.00;3.25;;;;;;;10.09;81.67;99112.25;5117723;27;20031;-74
2022/09/20 01:32:00;;;;;;;11.55;4.18;;;;;;;9.89;83.13;99120.69;5118460;27;20035;-75
2022/09/20 01:34:33;;;;;;;10.07;3.53;;;;;;;10.09;82.09;99130.94;5097157;28;20023;-75
2022/09/20 01:37:10;;;;;;;7.30;3.20;;;;;;;9.92;82.97;99132.72;5116816;27;20019;-75
2022/09/20 01:39:56;;;;;;;14.43;3.38;;;;;;;9.95;82.43;99137.56;5117901;27;20028;-74
2022/09/20 01:42:28;;;;;;;9.80;3.13;;;;;;;9.94;82.02;99131.44;5113773;27;20027;-75
2022/09/20 01:45:27;;;;;;;8.68;3.25;;;;;;;9.76;83.37;99129.75;5121627;27;20019;-78
2022/09/20 01:48:10;;;;;;;9.52;3.35;;;;;;;9.98;82.96;99129.91;5106317;27;20455;-77
2022/09/20 01:50:57;;;;;;;6.05;3.00;;;;;;;10.01;82.96;99125.97;5100966;27;20038;-77
2022/09/20 01:53:47;;;;;;;4.30;2.85;;;;;;;9.93;83.42;99135.16;5107855;27;20051;-76
2022/09/20 01:56:47;;;;;;;10.45;3.20;;;;;;;10.00;82.85;99135.84;5117055;27;20084;-76
2022/09/20 01:59:15;;;;;;;5.30;2.78;;;;;;;10.23;82.33;99133.09;5120574;27;20631;-76
2022/09/20 02:01:52;;;;;;;13.63;3.50;;;;;;;9.73;83.87;99126.75;5120363;27;20024;-77
2022/09/20 02:04:44;;;;;;;12.80;3.55;;;;;;;9.99;83.25;99134.19;5118948;27;20098;-76
2022/09/20 02:07:33;;;;;;;10.82;3.28;;;;;;;10.08;82.55;99126.63;5121327;27;20548;-77
2022/09/20 02:10:20;;;;;;;7.53;3.08;;;;;;;10.02;82.61;99130.25;5124891;27;20029;-77
2022/09/20 02:12:52;;;;;;;;;;;;;;;10.09;82.69;99130.94;5120853;27;20051;-76
2022/09/20 02:16:03;;;;;;;18.90;3.92;;;;;;;9.87;83.20;99135.28;5109930;22;20380;-76
2022/09/20 02:22:42;;;;;;;9.80;4.10;;;;;;;9.96;83.15;99125.88;5003797;28;20036;-77
2022/09/20 02:25:54;;;;;;;8.73;3.72;;;;;;;9.94;83.47;99130.66;5071536;28;20036;-77
2022/09/20 02:32:19;;;;;;;11.48;4.82;;;;;;;10.06;83.19;99134.06;5049160;28;20024;-76
2022/09/20 02:35:13;;;;;;;10.93;3.47;;;;;;;9.97;84.10;99132.81;5056220;28;20044;-76
2022/09/20 02:37:55;;;;;;;8.50;4.10;;;;;;;10.05;83.61;99135.91;5055047;28;20028;-75
2022/09/20 02:40:59;;;;;;;9.15;4.25;;;;;;;9.99;83.42;99136.88;5060401;28;20031;-78
2022/09/20 02:43:46;;;;;;;11.38;3.45;;;;;;;9.98;83.17;99140.56;5064700;28;20024;-76
2022/09/20 02:46:19;;;;;;;7.20;4.13;;;;;;;9.80;84.50;99136.25;5057559;28;20122;-77
2022/09/20 02:48:59;;;;;;;12.43;4.95;;;;;;;9.90;84.17;99143.63;5057930;28;20053;-76
2022/09/20 02:51:41;;;;;;;5.80;3.88;;;;;;;9.93;83.83;99142.34;5061590;28;20102;-76
2022/09/20 02:54:34;;;;;;;8.52;4.35;;;;;;;10.08;83.65;99151.44;5055176;28;20064;-77
2022/09/20 02:56:59;;;;;;;11.40;4.53;;;;;;;9.86;83.67;99139.81;5051058;28;20025;-76
2022/09/20 02:59:43;;;;;;;12.90;4.25;;;;;;;9.96;83.51;99142.66;5056524;28;20044;-77
2022/09/20 03:02:24;;;;;;;15.50;4.28;;;;;;;10.21;82.26;99153.88;5052771;28;20499;-76
2022/09/20 03:05:17;;;;;;;6.72;4.10;;;;;;;10.11;83.19;99156.31;5048537;28;20064;-77
2022/09/20 03:07:45;;;;;;;9.00;3.72;;;;;;;10.15;82.94;99144.16;5057733;28;20435;-76
2022/09/20 03:10:24;;;;;;;11.50;4.05;;;;;;;10.44;81.74;99150.28;5051784;28;20107;-78
2022/09/20 03:13:37;;;;;;;10.68;4.38;;;;;;;10.27;82.06;99138.75;5041832;28;20032;-78
2022/09/20 03:16:14;;;;;;;10.35;3.88;;;;;;;10.05;84.07;99140.44;5000186;28;20173;-78
2022/09/20 03:19:08;;;;;;;14.13;4.68;;;;;;;10.11;83.36;99134.19;5060458;28;20047;-78
2022/09/20 03:21:56;;;;;;;9.98;4.03;;;;;;;10.18;83.53;99129.50;5061497;28;20122;-77
2022/09/20 03:25:05;;;;;;;12.65;4.18;;;;;;;10.14;83.11;99133.69;5061639;28;20031;-78
2022/09/20 03:27:57;;;;;;;4.47;3.92;;;;;;;9.96;84.40;99140.00;5060485;28;20051;-78
2022/09/20 03:30:27;;;;;;;14.38;4.63;;;;;;;9.83;84.64;99150.94;5058603;28;20028;-77
2022/09/20 03:33:02;;;;;;;10.38;4.20;;;;;;;9.90;84.15;99145.47;5058650;28;20493;-76
2022/09/20 03:36:08;;;;;;;11.80;5.07;;;;;;;9.76;84.80;99144.94;5054917;28;20028;-76
2022/09/20 03:39:02;;;;;;;12.43;6.38;;;;;;;9.53;86.11;99134.31;5057916;28;20059;-79
2022/09/20 03:41:48;;;;;;;15.23;5.07;;;;;;;10.00;84.05;99151.84;5055265;28;20393;-80
2022/09/20 03:44:16;;;;;;;13.85;4.43;;;;;;;9.94;83.98;99139.44;5055851;28;20035;-80
2022/09/20 03:46:46;;;;;;;8.90;4.95;;;;;;;9.83;84.39;99142.94;5041969;28;20021;-80
2022/09/20 03:49:40;;;;;;;12.73;5.13;;;;;;;10.03;82.99;99156.69;5063461;28;20108;-77
2022/09/20 03:52:18;;;;;;;12.73;5.82;;;;;;;9.85;83.97;99150.72;5044807;28;20028;-73
2022/09/20 03:55:03;;;;;;;10.35;4.85;;;;;;;9.74;84.34;99155.81;5050649;28;20497;-72
2022/09/20 03:57:53;;;;;;;8.77;4.50;;;;;;;10.02;83.73;99160.41;5042399;28;20048;-73
2022/09/20 04:00:23;;;;;;;14.30;4.35;;;;;;;9.66;84.66;99152.72;5035066;28;20505;-73
2022/09/20 04:03:13;;;;;;;10.32;4.30;;;;;;;9.99;83.18;99162.72;5052366;28;20021;-72
2022/09/20 04:05:57;;;;;;;9.85;4.32;;;;;;;9.92;83.38;99157.53;5046845;28;20121;-73
2022/09/20 04:08:34;;;;;;;10.13;3.72;;;;;;;9.92;83.21;99146.84;5053301;28;20076;-73
2022/09/20 04:11:06;;;;;;;8.23;4.10;;;;;;;10.05;83.13;99162.59;5048581;28;20174;-73
2022/09/20 04:13:49;;;;;;;6.13;3.60;;;;;;;9.86;83.65;99153.13;5061353;28;20057;-73
2022/09/20 04:16:52;;;;;;;8.98;3.78;;;;;;;9.94;82.69;99152.75;5049710;28;20024;-73
2022/09/20 04:19:26;;;;;;;5.68;3.53;;;;;;;9.87;83.18;99154.78;5047346;28;20060;-73
2022/09/20 04:21:57;;;;;;;9.10;4.05;;;;;;;9.47;84.34;99159.25;5053694;28;20021;-73
2022/09/20 04:24:25;;;;;;;8.15;4.65;;;;;;;9.33;84.28;99157.84;5055213;28;20453;-73
2022/09/20 04:26:59;;;;;;;9.80;4.20;;;;;;;9.57;84.50;99162.94;5053291;28;20104;-73
2022/09/20 04:29:39;;;;;;;12.32;3.75;;;;;;;9.74;83.59;99169.16;5060750;28;20029;-72
2022/09/20 04:32:46;;;;;;;6.32;4.80;;;;;;;8.99;86.72;99168.28;5058563;28;20024;-72
2022/09/20 04:38:13;;;;;;;12.27;4.03;;;;;;;9.14;86.50;99177.66;5055645;28;20040;-72
2022/09/20 04:41:06;;;;;;;7.65;5.45;;;;;;;9.29;85.89;99175.34;5053831;28;20025;-72
2022/09/20 04:44:05;;;;;;;7.05;4.20;;;;;;;9.33;85.36;99177.31;5047317;28;20111;-73
2022/09/20 04:46:37;;;;;;;9.98;4.90;;;;;;;9.11;87.20;99181.59;5053677;28;20074;-72
2022/09/20 04:49:22;;;;;;;12.70;5.97;;;;;;;8.92;88.92;99196.84;5043016;28;20058;-75
2022/09/20 04:52:22;;;;;;;9.32;5.63;;;;;;;9.17;87.36;99196.66;5062216;28;20040;-74
2022/09/20 04:55:03;;;;;;;15.38;5.90;;;;;;;8.82;88.91;99201.91;5023224;28;20078;-74
2022/09/20 04:57:57;;;;;;;7.45;4.75;;;;;;;9.30;87.00;99198.28;5058575;28;20024;-74
2022/09/20 05:00:28;;;;;;;7.70;3.55;;;;;;;9.64;85.23;99197.44;5069346;28;20035;-74
2022/09/20 05:03:31;;;;;;;9.10;3.33;;;;;;;10.06;83.56;99201.56;5052697;28;20040;-75
2022/09/20 05:06:15;;;;;;;12.77;5.07;;;;;;;9.58;86.06;99207.19;5069126;28;20457;-75
2022/09/20 05:08:49;;;;;;;7.47;3.80;;;;;;;9.92;83.46;99210.03;5081206;28;20024;-74
2022/09/20 05:11:29;;;;;;;7.07;4.13;;;;;;;9.73;85.00;99212.84;5043361;28;20032;-74
2022/09/20 05:14:32;;;;;;;7.57;3.78;;;;;;;9.91;84.13;99219.09;5070338;28;20028;-76
2022/09/20 05:17:29;;;;;;;7.45;4.57;;;;;;;9.89;84.51;99215.84;5070275;28;20465;-77
2022/09/20 05:20:25;;;;;;;14.43;4.32;;;;;;;10.15;82.55;99215.34;5064543;28;20032;-75
2022/09/20 05:23:12;;;;;;;5.40;3.65;;;;;;;10.30;82.60;99218.31;5066431;28;20056;-76
2022/09/20 05:25:53;;;;;;;20.38;6.00;;;;;;;9.55;85.86;99214.84;5047529;28;20492;-75
2022/09/20 05:28:30;;;;;;;18.48;6.10;;;;;;;9.82;84.44;99222.13;5063298;28;20033;-76
2022/09/20 05:31:05;;;;;;;6.95;4.20;;;;;;;9.67;85.22;99212.97;5058721;28;20078;-76
2022/09/20 05:33:53;;;;;;;12.20;6.10;;;;;;;9.93;84.96;99220.47;5055203;28;20051;-76
2022/09/20 05:36:40;;;;;;;11.73;5.40;;;;;;;9.91;84.40;99219.09;5055494;28;20041;-76
2022/09/20 05:39:11;;;;;;;15.38;5.13;;;;;;;10.02;83.45;99221.75;5057006;28;20103;-77
2022/09/20 05:41:53;;;;;;;13.55;5.57;;;;;;;10.01;83.52;99225.44;5058670;28;20181;-76
2022/09/20 05:44:53;;;;;;;6.57;4.35;;;;;;;10.43;82.06;99234.88;5055133;28;20036;-76
2022/09/20 05:47:33;;;;;;;8.20;4.40;;;;;;;10.07;83.37;99232.50;5050084;28;20078;-76
2022/09/20 05:50:14;;;;;;;7.28;4.32;;;;;;;10.16;83.74;99228.44;5065005;28;20036;-76
2022/09/20 05:52:45;;;;;;;11.35;3.33;;;;;;;10.24;82.85;99238.72;5074941;28;20053;-75
2022/09/20 05:55:18;;;;;;;6.68;3.97;;;;;;;10.19;83.81;99237.84;5061642;28;20082;-76
2022/09/20 05:58:23;;;;;;;10.63;3.83;;;;;;;10.30;83.18;99232.47;5073670;28;20024;-75
2022/09/20 06:00:59;;;;;;;20.23;5.93;;;;;;;9.60;87.55;99238.94;5051291;28;20032;-75
2022/09/20 06:04:06;;;;;;;9.05;3.60;;;;;;;10.09;84.37;99240.28;5062585;28;20020;-76
2022/09/20 06:06:38;;;;;;;16.08;5.60;;;;;;;10.26;83.70;99238.53;5014561;28;20036;-76
2022/09/20 06:09:43;;;;;;;6.45;2.72;;;;;;;9.99;84.82;99251.53;5075517;28;20078;-74
2022/09/20 06:12:39;;;;;;;13.50;5.13;;;;;;;9.61;87.41;99261.91;5051117;28;20530;-73
2022/09/20 06:15:23;;;;;;;11.20;4.75;;;;;;;9.54;87.03;99253.19;5054583;28;20027;-73
2022/09/20 06:18:32;;;;;;;7.85;4.10;;;;;;;9.94;85.50;99247.97;5075488;28;20021;-73
2022/09/20 06:21:20;;;;;;;9.38;3.60;;;;;;;10.39;83.25;99247.06;4958325;28;20034;-73
2022/09/20 06:23:45;;;;;;;8.88;3.15;;;;;;;10.39;83.50;99232.91;4967707;28;20051;-73
2022/09/20 06:26:19;;;;;;;12.32;6.88;;;;;;;10.13;86.49;99244.94;5024964;28;20048;-73
2022/09/20 06:28:58;;;;;;;11.57;4.82;;;;;;;9.99;86.47;99248.03;5044275;28;20045;-73
2022/09/20 06:31:23;;;;;;;9.43;3.53;;;;;;;10.12;85.46;99259.31;5045914;28;20525;-73
2022/09/20 06:33:56;;;;;;;7.60;3.30;;;;;;;10.57;82.92;99252.19;5046107;28;20111;-73
2022/09/20 06:42:21;;;;;;;9.93;4.10;;;;;;;10.66;83.37;99263.31;5045822;28;20035;-73
2022/09/20 06:44:46;;;;;;;9.88;4.60;;;;;;;9.94;86.90;99262.06;5046634;28;20033;-73
2022/09/20 06:47:13;;;;;;;14.23;5.03;;;;;;;10.02;86.75;99267.06;5034374;28;20040;-73
2022/09/20 06:49:41;;;;;;;6.80;3.28;;;;;;;10.48;84.29;99266.97;5045800;28;20055;-73
2022/09/20 06:52:14;;;;;;;13.50;5.50;;;;;;;9.84;87.44;99272.53;5046804;28;20043;-73
2022/09/20 06:54:44;;;;;;;7.65;3.75;;;;;;;10.40;84.81;99267.34;5054708;28;20040;-74
2022/09/20 06:57:13;;;;;;;9.40;3.78;;;;;;;10.49;84.68;99275.78;5056974;28;20029;-73
2022/09/20 06:59:38;;;;;;;8.07;4.15;;;;;;;10.50;84.78;99269.41;5057211;28;20024;-73
2022/09/20 07:02:04;;;;;;;5.25;3.65;;;;;;;10.47;84.52;99270.69;5060120;28;20047;-73
2022/09/20 07:04:31;;;;;;;8.88;3.60;;;;;;;10.69;83.40;99275.38;5043544;28;20033;-73
2022/09/20 07:07:00;;;;;;;11.88;4.63;;;;;;;10.53;84.08;99280.41;5064690;28;20494;-73
2022/09/20 07:09:26;;;;;;;6.60;4.55;;;;;;;10.38;84.68;99280.13;5064229;28;20115;-73
2022/09/20 07:11:53;;;;;;;10.77;3.67;;;;;;;10.61;84.48;99283.78;5051565;28;20533;-73
2022/09/20 07:14:19;;;;;;;9.48;4.38;;;;;;;10.59;84.16;99273.34;5064236;28;20023;-73
2022/09/20 07:16:44;;;;;;;8.57;4.25;;;;;;;10.46;85.19;99278.94;5067421;28;20116;-73
2022/09/20 07:19:09;;;;;;;7.82;4.88;;;;;;;10.57;84.94;99281.56;5061708;28;20033;-73
2022/09/20 07:21:35;;;;;;;11.10;4.65;;;;;;;10.53;84.86;99287.59;5069893;28;20485;-73
2022/09/20 07:24:01;;;;;;;8.65;4.35;;;;;;;10.76;83.95;99282.19;5053695;28;20737;-73
2022/09/20 07:26:28;;;;;;;8.30;3.83;;;;;;;10.81;83.53;99284.94;5046586;28;20083;-73
2022/09/20 07:28:55;;;;;;;12.40;3.92;;;;;;;10.83;84.29;99295.41;5043164;28;20705;-73
2022/09/20 07:31:24;;;;;;;10.25;4.75;;;;;;;10.51;85.20;99292.38;5046011;28;20040;-73
2022/09/20 07:33:50;;;;;;;11.02;4.45;;;;;;;10.64;84.18;99294.78;5027599;28;20495;-75
2022/09/20 07:36:16;;;;;;;7.80;3.63;;;;;;;10.61;84.27;99299.78;5019074;28;20024;-74
2022/09/20 07:38:42;;;;;;;11.00;4.85;;;;;;;10.72;84.39;99305.09;5044829;28;20032;-73
2022/09/20 07:41:09;;;;;;;10.25;4.40;;;;;;;10.48;84.89;99301.66;5044688;28;20463;-74
2022/09/20 07:43:34;;;;;;;15.80;3.90;;;;;;;10.50;84.68;99304.13;5049431;28;20033;-73
2022/09/20 07:46:00;;;;;;;8.55;3.72;;;;;;;10.66;84.55;99303.34;5048068;28;20055;-74
2022/09/20 07:48:35;;;;;;;11.98;4.65;;;;;;;10.60;85.17;99312.31;5047013;28;20037;-74
2022/09/20 07:51:06;;;;;;;7.97;4.00;;;;;;;10.61;85.15;99313.94;5033688;28;20032;-74
2022/09/20 07:53:31;;;;;;;7.25;3.97;;;;;;;10.49;85.28;99318.50;5046106;28;20051;-73
2022/09/20 07:56:11;;;;;;;7.85;3.50;;;;;;;10.34;85.91;99316.34;5050778;28;20385;-73
2022/09/20 07:58:37;;;;;;;6.78;3.20;;;;;;;10.52;85.10;99324.19;5058909;28;20028;-74
2022/09/20 08:01:06;;;;;;;7.15;3.30;;;;;;;10.95;83.32;99323.69;5020131;28;20047;-74
2022/09/20 08:03:33;;;;;;;4.07;3.05;;;;;;;10.76;84.21;99324.91;5044979;28;20043;-74
2022/09/20 08:06:13;;;;;;;9.32;4.05;;;;;;;10.77;84.68;99331.06;5027779;28;20143;-73
2022/09/20 08:08:42;;;;;;;5.65;3.08;;;;;;;10.76;84.29;99324.91;5052565;28;20028;-74
2022/09/20 08:11:12;;;;;;;5.57;3.00;;;;;;;10.82;84.41;99339.16;5045232;28;20051;-73
2022/09/20 08:13:39;;;;;;;3.70;2.92;;;;;;;10.72;85.15;99339.78;5040845;28;20233;-73
2022/09/20 08:16:07;;;;;;;10.15;4.53;;;;;;;10.50;85.88;99339.63;5044719;28;20017;-72
2022/09/20 08:18:34;;;;;;;5.93;3.75;;;;;;;10.67;85.21;99346.88;5044355;28;20099;-73
2022/09/20 08:21:10;;;;;;;10.23;3.53;;;;;;;10.71;85.15;99342.69;5027873;28;20032;-74
2022/09/20 08:23:37;;;;;;;4.25;3.30;;;;;;;10.90;84.55;99347.59;5034372;28;20054;-74
2022/09/20 08:26:04;;;;;;;16.70;5.10;;;;;;;10.74;84.80;99350.22;5043248;28;20445;-74
2022/09/20 08:28:30;;;;;;;11.88;5.13;;;;;;;10.57;85.82;99352.03;5042316;28;20032;-74
2022/09/20 08:31:10;;;;;;;13.43;5.10;;;;;;;10.76;85.08;99351.63;5043137;28;20025;-73
2022/09/20 08:33:36;;;;;;;7.93;5.40;;;;;;;10.83;84.40;99354.97;5042359;28;20025;-73
2022/09/20 08:36:06;;;;;;;9.15;4.68;;;;;;;10.79;84.76;99353.78;5043999;28;20025;-73
2022/09/20 08:38:33;;;;;;;8.27;4.97;;;;;;;10.57;86.50;99356.31;5044595;28;20031;-74
2022/09/20 08:41:20;;;;;;;13.98;5.97;;;;;;;10.80;85.00;99346.59;5045267;28;20091;-74
2022/09/20 08:44:12;;;;;;;6.95;4.15;;;;;;;10.88;84.61;99349.72;5045323;28;20036;-73
2022/09/20 08:46:43;;;;;;;10.75;4.55;;;;;;;10.81;84.53;99343.69;5047251;28;20033;-73
2022/09/20 08:49:15;;;;;;;17.23;5.47;;;;;;;10.80;84.93;99349.28;5047200;28;20062;-74
2022/09/20 08:51:41;;;;;;;10.05;4.78;;;;;;;10.98;84.66;99359.78;5045619;28;20087;-74
2022/09/20 08:54:13;;;;;;;11.27;4.82;;;;;;;10.79;85.13;99358.34;5052925;28;20500;-74
2022/09/20 08:56:38;;;;;;;15.52;5.28;;;;;;;10.76;85.96;99364.16;5059009;28;20033;-73
2022/09/20 08:59:07;;;;;;;10.15;4.68;;;;;;;10.70;86.38;99362.44;5056079;28;20047;-73
2022/09/20 09:01:33;;;;;;;13.80;5.47;;;;;;;10.85;85.95;99360.06;5063288;28;20115;-73
2022/09/20 09:04:12;;;;;;;8.25;5.13;;;;;;;10.79;86.67;99361.03;5052083;28;20635;-73
2022/09/20 09:06:38;;;;;;;8.07;5.13;;;;;;;10.95;85.48;99366.41;5068915;28;20077;-74
2022/09/20 09:09:04;;;;;;;10.38;5.03;;;;;;;10.96;85.42;99369.91;5063312;28;20029;-74
2022/09/20 09:11:29;;;;;;;6.43;4.45;;;;;;;11.09;84.43;99370.44;5056461;28;20049;-73
2022/09/20 09:14:47;;;;;;;10.02;4.78;;;;;;;11.18;84.48;99360.97;5065305;28;20035;-74
2022/09/20 09:16:55;;;;;;;9.88;5.35;;;;;;;11.07;85.85;99367.16;5058721;28;20037;-73
2022/09/20 09:19:42;;;;;;;17.05;6.32;;;;;;;11.13;84.95;99362.75;5054768;28;20032;-73
2022/09/20 09:22:08;;;;;;;7.47;3.90;;;;;;;11.30;84.38;99367.06;5053058;28;20032;-73
2022/09/20 09:24:33;;;;;;;8.68;3.67;;;;;;;11.50;83.27;99363.94;5043753;28;20083;-73
2022/09/20 09:27:15;;;;;;;7.68;4.32;;;;;;;11.47;84.04;99368.94;5043418;28;20036;-73
2022/09/20 09:29:58;;;;;;;10.63;4.55;;;;;;;11.50;83.89;99366.63;5042342;28;20119;-74
2022/09/20 09:32:29;;;;;;;10.60;4.70;;;;;;;11.47;84.18;99359.06;5042945;28;20029;-75
2022/09/20 09:35:17;;;;;;;8.27;4.78;;;;;;;11.51;83.96;99362.09;5042116;28;20112;-74
2022/09/20 09:37:58;;;;;;;12.90;4.55;;;;;;;11.63;83.85;99365.47;5043013;28;20678;-74
2022/09/20 09:40:24;;;;;;;12.98;5.50;;;;;;;11.70;83.50;99369.66;5044521;28;20028;-74
2022/09/20 09:42:52;;;;;;;7.28;4.43;;;;;;;11.69;83.58;99362.69;5045050;28;20037;-73
2022/09/20 09:45:37;;;;;;;8.93;3.80;;;;;;;11.84;82.94;99378.16;5042513;28;20661;-74
2022/09/20 09:48:27;;;;;;;12.43;4.57;;;;;;;11.76;83.39;99370.53;5029343;28;20144;-73
2022/09/20 09:51:14;;;;;;;7.78;3.70;;;;;;;11.77;83.27;99372.97;5034925;28;20036;-74
2022/09/20 09:53:41;;;;;;;9.68;3.83;;;;;;;11.58;84.46;99357.38;5044391;28;20782;-74
2022/09/20 09:56:38;;;;;;;6.88;4.78;;;;;;;11.82;83.01;99365.03;5047074;28;20025;-74
2022/09/20 09:59:34;;;;;;;9.23;4.32;;;;;;;11.80;83.11;99366.31;5030164;28;20122;-73
2022/09/20 10:02:33;;;;;;;8.95;3.95;;;;;;;11.71;82.98;99352.56;5026336;28;21440;-74
2022/09/20 10:05:21;;;;;;;10.75;4.43;;;;;;;11.95;82.62;99362.03;5047998;28;20070;-73
2022/09/20 10:08:03;;;;;;;9.10;5.05;;;;;;;11.79;82.81;99362.06;5051933;28;20086;-74
2022/09/20 10:11:14;;;;;;;8.45;4.22;;;;;;;11.99;83.04;99360.47;5048062;28;20142;-73
2022/09/20 10:14:04;;;;;;;16.55;3.80;;;;;;;12.31;82.06;99360.69;5008674;28;20488;-73
2022/09/20 10:16:39;;;;;;;9.70;3.60;;;;;;;12.34;81.65;99359.38;5029707;28;21691;-73
2022/09/20 10:19:16;;;;;;;7.20;3.80;;;;;;;12.45;80.38;99363.81;5041785;28;20104;-75
2022/09/20 10:21:50;;;;;;;10.68;3.75;;;;;;;12.54;81.07;99367.66;5047215;28;20058;-74
2022/09/20 10:24:51;;;;;;;15.23;4.15;;;;;;;12.56;80.53;99358.34;5046587;28;20021;-73
2022/09/20 10:27:48;;;;;;;14.85;5.25;;;;;;;12.52;80.37;99357.22;4953889;28;20040;-74
2022/09/20 10:30:21;;;;;;;11.88;4.07;;;;;;;12.59;79.95;99357.03;5030355;28;20525;-74
2022/09/20 10:33:28;;;;;;;10.38;4.22;;;;;;;12.50;79.43;99356.66;5046790;28;20121;-73
2022/09/20 10:36:15;;;;;;;13.77;4.22;;;;;;;12.43;79.62;99349.84;5046752;28;20496;-73
2022/09/20 10:38:59;;;;;;;11.52;3.88;;;;;;;12.49;80.61;99354.22;5041110;28;20025;-74
2022/09/20 10:45:37;;;;;;;7.68;3.42;;;;;;;12.66;79.66;99358.47;5044079;28;20063;-75
2022/09/20 10:48:06;;;;;;;;;;;;;;;12.67;78.80;99360.09;5055142;28;20044;-72
2022/09/20 10:50:51;;;;;;;6.85;2.72;;;;;;;12.69;79.20;99362.50;5051176;28;19912;-73
2022/09/20 10:53:41;;;;;;;8.18;3.38;;;;;;;12.44;79.75;99356.84;5065878;28;20021;-72
2022/09/20 10:56:34;;;;;;;10.05;3.20;;;;;;;12.70;79.92;99356.09;5073618;28;20048;-72
2022/09/20 10:59:16;;;;;;;10.27;4.13;;;;;;;12.58;80.13;99358.09;5068013;28;20036;-72
2022/09/20 11:01:44;;;;;;;5.78;2.25;;;;;;;12.38;78.04;99357.84;5063645;28;20539;-72
2022/09/20 11:04:21;;;;;;;10.27;2.70;;;;;;;12.78;79.69;99359.16;5067583;28;20032;-72
2022/09/20 11:07:01;;;;;;;10.13;3.50;;;;;;;13.08;78.37;99372.13;5060104;28;20385;-72
2022/09/20 11:09:34;;;;;;;6.75;2.70;;;;;;;13.19;78.15;99365.78;5054199;28;20102;-72
2022/09/20 11:12:15;;;;;;;8.27;2.47;;;;;;;13.21;75.60;99369.06;5057085;28;20035;-72
2022/09/20 11:14:47;;;;;;;6.60;1.90;;;;;;;13.25;75.57;99366.66;5053251;28;20077;-73
2022/09/20 11:17:36;;;;;;;4.55;1.05;;;;;;;13.15;74.67;99361.22;5072414;28;20028;-72
2022/09/20 11:20:25;;;;;;;4.85;1.65;;;;;;;13.32;75.21;99376.09;5061584;28;20124;-72
2022/09/20 11:22:54;;;;;;;4.45;2.00;;;;;;;13.13;74.91;99364.13;5059400;28;20036;-73
2022/09/20 11:25:49;;;;;;;4.80;1.45;;;;;;;13.11;75.15;99366.25;5057128;28;20326;-73
2022/09/20 11:28:19;;;;;;;4.05;1.50;;;;;;;13.15;75.53;99377.28;5057078;28;20025;-72
2022/09/20 11:30:55;;;;;;;4.30;1.50;;;;;;;13.18;76.02;99374.91;5058252;28;20037;-73
2022/09/20 11:33:27;;;;;;;7.82;2.28;;;;;;;13.41;75.35;99377.28;5053520;28;20473;-73
2022/09/20 11:36:07;;;;;;;6.13;1.65;;;;;;;13.33;75.19;99382.28;5052925;28;20028;-73
2022/09/20 11:38:47;;;;;;;5.40;1.88;;;;;;;13.33;75.56;99379.59;5055688;28;20107;-73
2022/09/20 11:41:30;;;;;;;10.40;2.15;;;;;;;13.02;75.22;99383.00;5056369;28;20031;-73
2022/09/20 11:44:06;;;;;;;3.65;1.90;;;;;;;13.22;76.01;99372.53;5058183;28;20032;-73
2022/09/20 11:46:46;;;;;;;6.00;1.65;;;;;;;13.02;76.25;99383.00;5059583;28;20111;-73
2022/09/20 11:49:28;;;;;;;3.55;1.75;;;;;;;13.44;74.82;99371.41;5052643;28;20028;-73
2022/09/20 11:52:02;;;;;;;4.63;1.60;;;;;;;13.26;76.52;99385.16;5048267;28;20451;-72
2022/09/20 11:54:40;;;;;;;9.73;3.03;;;;;;;13.16;76.40;99377.03;5059420;28;20040;-72
2022/09/20 11:57:06;;;;;;;6.18;1.70;;;;;;;13.21;75.92;99376.28;5053116;28;20067;-72
2022/09/20 11:59:39;;;;;;;6.32;1.73;;;;;;;13.33;75.64;99375.06;5052413;28;20024;-72
2022/09/20 12:02:16;;;;;;;7.60;2.40;;;;;;;12.96;74.93;99374.09;5059354;28;20063;-73
2022/09/20 12:04:46;;;;;;;4.25;2.15;;;;;;;13.24;76.24;99370.41;5056406;28;20024;-73
2022/09/20 12:07:19;;;;;;;5.00;2.25;;;;;;;13.38;75.63;99367.06;5064557;28;20043;-73
2022/09/20 12:10:00;;;;;;;6.50;2.33;;;;;;;13.39;75.43;99371.34;5055306;28;20516;-73
2022/09/20 12:12:42;;;;;;;14.00;2.38;;;;;;;13.54;74.68;99371.50;5051249;28;20029;-72
2022/09/20 12:15:20;;;;;;;7.15;1.77;;;;;;;13.55;74.49;99375.00;5052782;28;20108;-73
2022/09/20 12:17:45;;;;;;;6.25;2.35;;;;;;;13.50;74.07;99375.75;5055260;28;20039;-72
2022/09/20 12:20:38;;;;;;;9.45;2.55;;;;;;;13.61;73.92;99365.13;5044078;28;20021;-72
2022/09/20 12:23:43;;;;;;;7.15;2.30;;;;;;;13.71;73.50;99363.34;5060417;28;20118;-73
2022/09/20 12:26:32;;;;;;;9.77;3.50;;;;;;;13.89;72.78;99360.25;5049549;28;20101;-72
2022/09/20 12:29:00;;;;;;;8.10;3.80;;;;;;;14.21;72.11;99357.53;5039536;28;20119;-73
2022/09/20 12:31:28;;;;;;;7.72;3.42;;;;;;;14.33;72.12;99357.38;5074096;28;20043;-73
2022/09/20 12:34:14;;;;;;;9.60;3.35;;;;;;;14.53;70.85;99360.97;5058794;28;20038;-73
2022/09/20 12:36:52;;;;;;;9.48;3.28;;;;;;;14.16;73.54;99370.91;5053452;28;20052;-74
2022/09/20 12:39:21;;;;;;;11.48;3.28;;;;;;;13.85;75.07;99361.84;5033935;28;20470;-72
2022/09/20 12:42:05;;;;;;;8.75;3.15;;;;;;;13.74;76.10;99360.13;5058632;28;20040;-73
2022/09/20 12:44:48;;;;;;;9.27;2.05;;;;;;;13.38;77.11;99361.72;5049736;28;20024;-73